Terminal Aerodrome Forecast
Issued by NWS

Home | Current Version | Previous Version | Text Only | Print | Product List | Glossary On
Versions: 1 2 3 4 5 6 7 8 9 10 11 12 13 14 15 16 17 18 19 20
000
FTUS41 KCAR 301100
TAFFVE
TAF
KFVE 301120Z 3012/0112 13007KT 3SM -DZ BR OVC003
     FM301500 16005KT 4SM -DZ OVC007
     FM301800 18004KT P6SM -DZ OVC015
     FM302100 VRB03KT P6SM -DZ OVC040
     FM010600 00000KT P6SM -DZ BKN025
     FM011000 VRB03KT 6SM -DZ SCT015=

USA.gov is the U.S. government's official web portal to all federal, state and local government web resources and services.